Time;durP1;ratioP1;P1;durP2;ratioP2;P2;SDS_P1;SDS_P2;PMS_P1;PMS_P2;Temp;Humidity;BMP_temperature;BMP_pressure;BME280_temperature;BME280_humidity;BME280_pressure;Samples;Min_cycle;Max_cycle;Signal;HPM_P1;HPM_P2
2022/10/08 00:00:54;;;;;;;9.80;2.83;;;13.00;99.90;;;;;;4963597;28;20534;-72
2022/10/08 00:03:21;;;;;;;8.15;2.65;;;13.00;99.90;;;;;;4964563;28;20050;-72
2022/10/08 00:06:11;;;;;;;10.48;2.92;;;13.00;99.90;;;;;;4947342;28;20050;-71
2022/10/08 00:08:39;;;;;;;9.38;2.63;;;13.10;99.90;;;;;;4965013;28;20090;-71
2022/10/08 00:11:20;;;;;;;11.13;3.20;;;13.00;99.90;;;;;;4963660;28;20093;-71
2022/10/08 00:13:47;;;;;;;10.88;3.35;;;13.00;99.90;;;;;;4964145;28;20031;-73
2022/10/08 00:16:23;;;;;;;9.20;2.72;;;13.00;99.90;;;;;;4965166;28;20055;-71
2022/10/08 00:18:50;;;;;;;8.82;2.58;;;13.00;99.90;;;;;;4963883;28;20394;-72
2022/10/08 00:21:19;;;;;;;9.15;2.60;;;13.00;99.90;;;;;;4964173;28;20055;-71
2022/10/08 00:23:47;;;;;;;12.07;2.70;;;13.00;99.90;;;;;;4965059;28;20051;-71
2022/10/08 00:26:14;;;;;;;7.97;2.20;;;13.00;99.90;;;;;;4963763;28;20050;-70
2022/10/08 00:28:45;;;;;;;8.55;2.20;;;13.00;99.90;;;;;;4964643;28;20446;-72
2022/10/08 00:31:15;;;;;;;8.32;2.53;;;13.00;99.90;;;;;;4964109;28;20050;-71
2022/10/08 00:33:41;;;;;;;11.75;2.80;;;12.90;99.90;;;;;;4962727;28;20051;-72
2022/10/08 00:36:09;;;;;;;10.77;2.83;;;12.90;99.90;;;;;;4947105;28;20050;-71
2022/10/08 00:38:34;;;;;;;7.28;2.03;;;12.90;99.90;;;;;;4964846;28;20483;-71
2022/10/08 00:41:01;;;;;;;8.13;2.35;;;12.90;99.90;;;;;;4948078;28;20074;-72
2022/10/08 00:43:44;;;;;;;11.60;3.30;;;12.80;99.90;;;;;;4964163;28;20074;-70
2022/10/08 00:46:42;;;;;;;7.60;2.30;;;12.90;99.90;;;;;;4963881;28;20054;-72
2022/10/08 00:49:21;;;;;;;8.80;3.22;;;12.90;99.90;;;;;;4942530;28;20430;-71
2022/10/08 00:51:51;;;;;;;10.68;2.55;;;12.80;99.90;;;;;;4963974;28;20636;-72
2022/10/08 00:54:19;;;;;;;8.27;2.65;;;12.80;99.90;;;;;;4964034;28;20039;-71
2022/10/08 00:56:51;;;;;;;11.10;2.50;;;12.80;99.90;;;;;;4947212;28;20095;-71
2022/10/08 00:59:18;;;;;;;8.40;2.22;;;12.80;99.90;;;;;;4962974;28;20100;-71
2022/10/08 01:01:44;;;;;;;8.02;2.55;;;12.80;99.90;;;;;;4964517;28;20054;-71
2022/10/08 01:04:11;;;;;;;6.85;2.20;;;12.90;99.90;;;;;;4964346;28;20053;-71
2022/10/08 01:06:55;;;;;;;9.25;2.45;;;12.80;99.90;;;;;;4963652;28;20046;-71
2022/10/08 01:09:44;;;;;;;11.73;2.78;;;12.70;99.90;;;;;;4964421;28;20118;-71
2022/10/08 01:12:44;;;;;;;7.10;2.33;;;12.70;99.90;;;;;;4963407;28;20172;-71
2022/10/08 01:15:27;;;;;;;7.78;2.05;;;12.80;99.90;;;;;;4963531;28;20070;-71
2022/10/08 01:18:11;;;;;;;7.75;2.25;;;12.70;99.90;;;;;;4947243;28;20042;-71
2022/10/08 01:20:42;;;;;;;8.57;2.20;;;12.60;99.90;;;;;;4963462;28;20072;-71
2022/10/08 01:23:45;;;;;;;9.23;2.38;;;12.70;99.90;;;;;;4947150;28;20055;-71
2022/10/08 01:26:29;;;;;;;9.18;3.00;;;12.70;99.90;;;;;;4946618;28;20050;-71
2022/10/08 01:29:02;;;;;;;9.93;2.25;;;12.70;99.90;;;;;;4964034;28;20499;-71
2022/10/08 01:31:32;;;;;;;8.43;2.20;;;12.50;99.90;;;;;;4946987;28;20054;-70
2022/10/08 01:34:17;;;;;;;10.65;2.45;;;12.50;99.90;;;;;;4964371;28;20047;-70
2022/10/08 01:36:45;;;;;;;;;;;12.50;99.90;;;;;;4964081;28;20051;-71
2022/10/08 01:39:16;;;;;;;8.90;2.60;;;12.40;99.90;;;;;;4963321;28;19929;-71
2022/10/08 01:41:46;;;;;;;6.25;2.03;;;12.30;99.90;;;;;;4962643;28;20046;-71
2022/10/08 01:44:28;;;;;;;6.72;2.35;;;12.30;99.90;;;;;;4963924;28;20505;-71
2022/10/08 01:46:59;;;;;;;5.70;1.77;;;12.30;99.90;;;;;;4967525;28;20065;-71
2022/10/08 01:49:33;;;;;;;7.25;2.35;;;12.40;99.90;;;;;;4966925;28;20034;-71
2022/10/08 01:52:09;;;;;;;8.63;2.10;;;12.30;99.90;;;;;;4966945;28;20094;-71
2022/10/08 01:54:36;;;;;;;8.15;2.30;;;12.20;99.90;;;;;;4967220;28;20333;-71
2022/10/08 01:57:05;;;;;;;9.75;2.22;;;12.30;99.90;;;;;;4949528;28;20078;-72
2022/10/08 01:59:43;;;;;;;8.18;2.40;;;12.20;99.90;;;;;;4966867;28;20053;-72
2022/10/08 02:02:22;;;;;;;7.63;2.40;;;12.10;99.90;;;;;;4966829;28;20081;-72
2022/10/08 02:04:50;;;;;;;10.55;2.63;;;12.10;99.90;;;;;;4948765;28;20207;-73
2022/10/08 02:07:27;;;;;;;9.10;2.72;;;12.20;99.90;;;;;;4967029;28;20074;-73
2022/10/08 02:12:45;;;;;;;12.10;2.85;;;11.90;99.90;;;;;;4953597;23;20138;-74
2022/10/08 02:15:27;;;;;;;9.55;2.40;;;11.90;99.90;;;;;;4943393;28;20165;-74
2022/10/08 02:18:11;;;;;;;10.82;2.88;;;11.70;99.90;;;;;;4963865;28;20054;-73
2022/10/08 02:20:49;;;;;;;9.55;2.58;;;11.80;99.90;;;;;;4985175;28;20504;-73
2022/10/08 02:23:36;;;;;;;7.85;2.80;;;11.80;99.90;;;;;;4985442;28;20038;-73
2022/10/08 02:26:11;;;;;;;9.95;2.40;;;11.80;99.90;;;;;;4968003;28;20046;-74
2022/10/08 02:28:43;;;;;;;7.85;2.53;;;11.60;99.90;;;;;;4983552;28;20181;-74
2022/10/08 02:31:20;;;;;;;7.00;2.08;;;11.60;99.90;;;;;;4951668;28;20058;-74
2022/10/08 02:34:11;;;;;;;9.18;2.50;;;11.50;99.90;;;;;;4985515;28;20042;-74
2022/10/08 02:36:44;;;;;;;5.97;2.10;;;11.60;99.90;;;;;;4985279;28;20047;-74
2022/10/08 02:39:11;;;;;;;6.97;2.10;;;11.40;99.90;;;;;;4984667;28;20073;-75
2022/10/08 02:41:42;;;;;;;5.95;1.90;;;11.50;99.90;;;;;;4984733;28;20039;-74
2022/10/08 02:44:13;;;;;;;11.32;2.22;;;11.40;99.90;;;;;;4971620;28;20757;-74
2022/10/08 02:46:41;;;;;;;6.68;2.33;;;11.40;99.90;;;;;;4948424;28;20133;-74
2022/10/08 02:49:15;;;;;;;10.93;3.05;;;11.50;99.90;;;;;;4964678;28;20050;-74
2022/10/08 02:51:48;;;;;;;8.98;2.80;;;11.30;99.90;;;;;;4965783;28;20054;-74
2022/10/08 02:54:17;;;;;;;7.32;2.17;;;11.30;99.90;;;;;;4964711;28;20046;-74
2022/10/08 02:56:47;;;;;;;8.48;2.50;;;11.30;99.90;;;;;;4965645;28;20395;-74
2022/10/08 02:59:18;;;;;;;5.68;2.60;;;11.30;99.90;;;;;;4965242;28;20058;-74
2022/10/08 03:01:45;;;;;;;9.15;2.50;;;11.30;99.90;;;;;;4948388;28;20043;-74
2022/10/08 03:04:21;;;;;;;10.98;2.97;;;11.10;99.90;;;;;;4965376;28;20047;-74
2022/10/08 03:06:48;;;;;;;8.18;3.20;;;11.10;99.90;;;;;;4958130;28;20042;-74
2022/10/08 03:09:16;;;;;;;8.55;3.05;;;11.20;99.90;;;;;;4945071;29;20049;-74
2022/10/08 03:11:41;;;;;;;8.85;3.30;;;11.10;99.90;;;;;;4945392;29;20047;-74
2022/10/08 03:14:09;;;;;;;6.78;3.00;;;10.90;99.90;;;;;;4944997;29;20134;-74
2022/10/08 03:16:39;;;;;;;9.73;3.53;;;10.90;99.90;;;;;;4946646;29;20150;-74
2022/10/08 03:19:06;;;;;;;10.52;3.45;;;11.10;99.90;;;;;;4946105;29;20548;-74
2022/10/08 03:21:32;;;;;;;11.15;4.28;;;10.90;99.90;;;;;;4946134;29;20043;-74
2022/10/08 03:23:58;;;;;;;10.00;4.45;;;10.90;99.90;;;;;;4946956;29;20477;-74
2022/10/08 03:26:24;;;;;;;9.48;4.28;;;11.00;99.90;;;;;;4944698;29;20111;-74
2022/10/08 03:28:52;;;;;;;11.90;4.55;;;11.00;99.90;;;;;;4927658;29;20051;-74
2022/10/08 03:31:19;;;;;;;11.95;4.65;;;10.80;99.90;;;;;;4945839;29;20039;-74
2022/10/08 03:33:52;;;;;;;11.45;4.70;;;11.00;99.90;;;;;;4945632;29;20043;-74
2022/10/08 03:36:19;;;;;;;14.07;4.53;;;10.90;99.90;;;;;;4928085;29;20088;-74
2022/10/08 03:38:45;;;;;;;9.88;4.60;;;10.90;99.90;;;;;;4945570;29;20047;-74
2022/10/08 03:41:11;;;;;;;13.38;4.60;;;11.00;99.90;;;;;;4945715;29;20043;-74
2022/10/08 03:43:36;;;;;;;10.25;4.63;;;10.80;99.90;;;;;;4945288;29;20047;-74
2022/10/08 03:46:02;;;;;;;11.45;4.18;;;10.90;99.90;;;;;;4945684;29;20126;-74
2022/10/08 03:48:28;;;;;;;8.82;4.70;;;11.00;99.90;;;;;;4945523;29;20077;-74
2022/10/08 03:51:03;;;;;;;9.52;4.18;;;10.80;99.90;;;;;;4944310;29;20509;-74
2022/10/08 03:53:31;;;;;;;;;;;10.90;99.90;;;;;;4946395;29;20478;-73
2022/10/08 03:56:01;;;;;;;11.25;4.25;;;10.90;99.90;;;;;;4946724;29;19933;-74
2022/10/08 03:58:26;;;;;;;11.43;4.78;;;10.70;99.90;;;;;;4943950;29;20079;-74
2022/10/08 04:00:59;;;;;;;10.98;5.13;;;10.80;99.90;;;;;;4945342;29;20637;-73
2022/10/08 04:03:26;;;;;;;13.98;5.05;;;10.70;99.90;;;;;;4944765;29;20056;-74
2022/10/08 04:05:52;;;;;;;10.07;4.28;;;10.70;99.90;;;;;;4933210;28;20461;-74
2022/10/08 04:08:18;;;;;;;9.27;4.55;;;10.90;99.90;;;;;;4933065;29;20054;-74
2022/10/08 04:10:43;;;;;;;10.95;4.45;;;10.80;99.90;;;;;;4945314;29;20113;-73
2022/10/08 04:13:09;;;;;;;13.82;5.03;;;10.90;99.90;;;;;;4944074;29;20130;-74
2022/10/08 04:15:35;;;;;;;12.68;5.13;;;10.90;99.90;;;;;;4926614;29;20078;-73
2022/10/08 04:18:01;;;;;;;12.02;4.72;;;10.90;99.90;;;;;;4928113;29;20470;-74
2022/10/08 04:20:26;;;;;;;15.00;4.78;;;11.10;99.90;;;;;;4944896;29;20106;-74
2022/10/08 04:22:52;;;;;;;8.75;4.35;;;11.00;99.90;;;;;;4944680;29;20527;-73
2022/10/08 04:25:17;;;;;;;10.43;4.45;;;10.80;99.90;;;;;;4944659;29;20453;-74
2022/10/08 04:27:47;;;;;;;9.85;4.35;;;10.90;99.90;;;;;;4944941;29;20559;-74
2022/10/08 04:30:14;;;;;;;13.48;4.65;;;10.80;99.90;;;;;;4926812;29;20039;-74
2022/10/08 04:32:40;;;;;;;11.25;5.00;;;10.80;99.90;;;;;;4945385;29;20051;-74
2022/10/08 04:35:06;;;;;;;13.05;4.60;;;10.80;99.90;;;;;;4926572;29;20063;-74
2022/10/08 04:37:32;;;;;;;9.55;4.53;;;10.80;99.90;;;;;;4927777;29;20051;-74
2022/10/08 04:39:58;;;;;;;10.50;4.40;;;10.70;99.90;;;;;;4927774;29;20102;-74
2022/10/08 04:42:23;;;;;;;10.70;5.25;;;10.70;99.90;;;;;;4944743;29;20039;-74
2022/10/08 04:44:49;;;;;;;11.63;5.22;;;10.60;99.90;;;;;;4927464;29;20473;-73
2022/10/08 04:47:14;;;;;;;11.32;5.20;;;10.60;99.90;;;;;;4944697;29;20597;-74
2022/10/08 04:49:40;;;;;;;14.45;5.30;;;10.60;99.90;;;;;;4944845;29;20051;-73
2022/10/08 04:52:06;;;;;;;11.57;5.28;;;10.50;99.90;;;;;;4926794;29;20060;-74
2022/10/08 04:54:32;;;;;;;13.82;5.35;;;10.70;99.90;;;;;;4945283;29;20040;-73
2022/10/08 04:56:57;;;;;;;14.68;4.72;;;10.50;99.90;;;;;;4943560;29;20839;-73
2022/10/08 04:59:23;;;;;;;16.67;5.20;;;10.70;99.90;;;;;;4943850;29;20388;-74
2022/10/08 05:01:49;;;;;;;16.40;5.78;;;10.70;99.90;;;;;;4927419;29;20406;-74
2022/10/08 05:04:14;;;;;;;16.20;5.47;;;10.60;99.90;;;;;;4927269;29;20071;-74
2022/10/08 05:06:40;;;;;;;12.18;5.45;;;10.40;99.90;;;;;;4955562;28;20047;-74
2022/10/08 05:09:06;;;;;;;12.68;4.97;;;10.60;99.90;;;;;;4944940;29;20047;-74
2022/10/08 05:11:32;;;;;;;14.88;5.43;;;10.50;99.90;;;;;;4927505;29;20442;-74
2022/10/08 05:13:58;;;;;;;16.33;5.00;;;10.40;99.90;;;;;;4945098;29;20113;-74
2022/10/08 05:16:25;;;;;;;13.07;5.10;;;10.30;99.90;;;;;;4943737;29;20505;-74
2022/10/08 05:18:51;;;;;;;13.00;4.90;;;10.30;99.90;;;;;;4946412;28;20148;-73
2022/10/08 05:21:20;;;;;;;9.82;4.28;;;10.30;99.90;;;;;;4948049;29;20047;-73
2022/10/08 05:23:46;;;;;;;12.10;4.65;;;10.30;99.90;;;;;;4946483;29;20058;-72
2022/10/08 05:26:18;;;;;;;14.73;5.18;;;10.30;99.90;;;;;;4948798;29;20039;-72
2022/10/08 05:28:45;;;;;;;12.23;4.93;;;10.20;99.90;;;;;;4947884;29;20078;-73
2022/10/08 05:31:12;;;;;;;11.73;4.60;;;10.20;99.90;;;;;;4948004;29;20043;-73
2022/10/08 05:33:38;;;;;;;11.35;4.88;;;10.20;99.90;;;;;;4948659;29;20051;-73
2022/10/08 05:36:06;;;;;;;13.88;5.28;;;10.20;99.90;;;;;;4948535;29;20138;-73
2022/10/08 05:38:33;;;;;;;11.23;4.72;;;10.30;99.90;;;;;;4947322;29;20055;-72
2022/10/08 05:41:13;;;;;;;12.57;4.93;;;10.30;99.90;;;;;;4948404;29;20051;-72
2022/10/08 05:43:40;;;;;;;15.48;5.32;;;10.30;99.90;;;;;;4947721;29;20062;-73
2022/10/08 05:46:06;;;;;;;13.02;4.80;;;10.20;99.90;;;;;;4930047;29;20062;-73
2022/10/08 05:48:32;;;;;;;11.18;4.68;;;10.20;99.90;;;;;;4948129;29;20429;-72
2022/10/08 05:51:04;;;;;;;12.95;5.13;;;10.30;99.90;;;;;;4948322;29;20035;-72
2022/10/08 05:53:30;;;;;;;16.95;5.45;;;10.30;99.90;;;;;;4948007;29;20051;-73
2022/10/08 05:56:00;;;;;;;14.20;4.95;;;10.30;99.90;;;;;;4948143;29;20062;-72
2022/10/08 05:58:26;;;;;;;12.90;4.93;;;10.10;99.90;;;;;;4947094;29;20469;-73
2022/10/08 06:01:04;;;;;;;16.92;4.60;;;10.20;99.90;;;;;;4947343;29;20055;-72
2022/10/08 06:03:30;;;;;;;12.40;4.40;;;10.40;99.90;;;;;;4948347;29;20113;-72
2022/10/08 06:06:05;;;;;;;13.70;4.50;;;10.30;99.90;;;;;;4946556;29;20066;-72
2022/10/08 06:08:32;;;;;;;12.18;4.13;;;10.30;99.90;;;;;;4946237;28;20501;-73
2022/10/08 06:10:58;;;;;;;14.18;4.53;;;10.40;99.90;;;;;;4967003;28;20058;-73
2022/10/08 06:13:24;;;;;;;16.75;4.32;;;10.40;99.90;;;;;;4965879;28;20051;-73
2022/10/08 06:15:58;;;;;;;15.48;5.28;;;10.40;99.90;;;;;;4967008;28;20110;-72
2022/10/08 06:18:25;;;;;;;17.00;4.65;;;10.30;99.90;;;;;;4949319;28;20189;-72
2022/10/08 06:20:51;;;;;;;14.32;4.45;;;10.30;99.90;;;;;;4949509;28;20059;-72
2022/10/08 06:23:17;;;;;;;13.63;4.15;;;10.40;99.90;;;;;;4949534;28;20046;-72
2022/10/08 06:25:43;;;;;;;17.80;4.38;;;10.50;99.90;;;;;;4966786;28;20051;-72
2022/10/08 06:28:09;;;;;;;15.40;5.25;;;10.40;99.90;;;;;;4966008;28;20069;-72
2022/10/08 06:30:34;;;;;;;12.18;4.35;;;10.50;99.90;;;;;;4948779;28;20046;-73
2022/10/08 06:33:00;;;;;;;14.85;4.28;;;10.60;99.90;;;;;;4965499;28;20137;-72
2022/10/08 06:35:26;;;;;;;13.80;4.35;;;10.60;99.90;;;;;;4966677;28;20589;-72
2022/10/08 06:37:52;;;;;;;11.93;3.47;;;10.50;99.90;;;;;;4966598;28;20053;-72
2022/10/08 06:40:17;;;;;;;14.80;4.53;;;10.70;99.90;;;;;;4966317;28;20051;-73
2022/10/08 06:42:43;;;;;;;18.75;4.40;;;10.70;99.90;;;;;;4948594;28;20492;-73
2022/10/08 06:45:09;;;;;;;11.50;3.53;;;10.60;99.90;;;;;;4966068;28;20058;-72
2022/10/08 06:47:35;;;;;;;16.20;3.95;;;10.60;99.90;;;;;;4965085;28;20101;-73
2022/10/08 06:50:00;;;;;;;13.40;3.67;;;10.70;99.90;;;;;;4948405;28;20047;-72
2022/10/08 06:52:26;;;;;;;15.93;3.90;;;10.80;99.90;;;;;;4949669;28;20046;-72
2022/10/08 06:54:52;;;;;;;15.55;4.00;;;10.80;99.90;;;;;;4966228;28;20053;-72
2022/10/08 06:57:18;;;;;;;14.23;3.85;;;10.90;99.90;;;;;;4966153;28;20122;-72
2022/10/08 06:59:43;;;;;;;19.25;3.85;;;10.90;99.90;;;;;;4965028;28;20497;-72
2022/10/08 07:02:10;;;;;;;16.85;3.78;;;11.10;99.90;;;;;;4948575;28;20129;-73
2022/10/08 07:04:36;;;;;;;15.75;2.85;;;11.10;99.90;;;;;;4965312;28;20129;-72
2022/10/08 07:07:02;;;;;;;13.40;3.10;;;11.10;99.90;;;;;;4956584;28;20131;-72
2022/10/08 07:09:28;;;;;;;13.18;3.10;;;11.30;99.90;;;;;;4946953;29;20420;-72
2022/10/08 07:11:53;;;;;;;15.27;2.95;;;11.20;99.90;;;;;;4946602;29;20047;-72
2022/10/08 07:14:19;;;;;;;19.95;3.88;;;11.20;99.90;;;;;;4945724;29;20087;-72
2022/10/08 07:16:45;;;;;;;14.48;3.00;;;11.10;99.90;;;;;;4945952;29;20044;-72
2022/10/08 07:19:11;;;;;;;14.35;2.92;;;11.30;99.90;;;;;;4946392;29;20086;-73
2022/10/08 07:21:36;;;;;;;14.20;3.22;;;11.30;99.90;;;;;;4946765;29;20053;-72
2022/10/08 07:24:02;;;;;;;11.40;2.50;;;11.60;99.90;;;;;;4946823;29;20386;-72
2022/10/08 07:26:31;;;;;;;12.57;2.30;;;11.60;99.90;;;;;;4946784;29;20046;-72
2022/10/08 07:29:03;;;;;;;8.93;1.88;;;11.80;99.90;;;;;;4946760;29;20074;-72
2022/10/08 07:31:32;;;;;;;7.97;1.70;;;11.60;99.90;;;;;;4945687;29;20062;-72
2022/10/08 07:34:04;;;;;;;11.65;2.42;;;11.70;99.90;;;;;;4947003;29;20090;-72
2022/10/08 07:36:31;;;;;;;7.57;1.63;;;11.80;99.90;;;;;;4945339;29;20051;-72
2022/10/08 07:39:06;;;;;;;9.90;1.52;;;12.10;99.90;;;;;;4929121;29;20051;-72
2022/10/08 07:41:32;;;;;;;8.38;1.73;;;12.10;99.90;;;;;;4945598;28;20043;-72
2022/10/08 07:43:59;;;;;;;9.15;2.15;;;12.10;99.90;;;;;;4946145;29;20050;-72
2022/10/08 07:46:30;;;;;;;7.15;1.45;;;12.00;99.90;;;;;;4944200;29;20047;-72
2022/10/08 07:48:57;;;;;;;6.82;1.50;;;11.90;99.90;;;;;;4946861;29;20035;-72
2022/10/08 07:51:25;;;;;;;7.50;1.73;;;11.80;99.90;;;;;;4945636;29;20393;-72
2022/10/08 07:53:51;;;;;;;6.63;1.40;;;11.80;99.90;;;;;;4950660;28;20042;-73
2022/10/08 07:56:18;;;;;;;9.60;2.10;;;11.80;99.90;;;;;;4973548;28;20042;-73
2022/10/08 07:58:46;;;;;;;9.07;1.65;;;11.90;99.90;;;;;;4975012;28;20046;-73
2022/10/08 08:01:14;;;;;;;9.75;1.83;;;11.90;99.90;;;;;;4955787;28;20038;-73
2022/10/08 08:03:40;;;;;;;9.98;2.00;;;12.00;99.90;;;;;;4967977;28;20134;-73
2022/10/08 08:06:14;;;;;;;9.32;2.00;;;12.10;99.90;;;;;;4947272;28;20049;-73
2022/10/08 08:08:41;;;;;;;7.28;1.50;;;12.00;99.90;;;;;;4937698;28;20131;-73
2022/10/08 08:11:10;;;;;;;8.80;1.98;;;12.20;99.90;;;;;;4973149;28;20063;-73
2022/10/08 08:13:38;;;;;;;14.00;2.00;;;12.30;99.90;;;;;;4969792;28;20045;-73
2022/10/08 08:16:13;;;;;;;8.40;1.60;;;12.40;99.90;;;;;;4955916;28;20157;-74
2022/10/08 08:18:42;;;;;;;12.23;2.13;;;12.40;99.90;;;;;;4970047;28;20105;-73
2022/10/08 08:21:13;;;;;;;10.20;1.58;;;12.20;99.90;;;;;;4971917;28;20457;-73
2022/10/08 08:23:45;;;;;;;11.43;2.35;;;12.20;99.90;;;;;;4965922;28;20078;-74
2022/10/08 08:26:14;;;;;;;9.35;2.05;;;12.20;99.90;;;;;;4982572;28;20393;-73
2022/10/08 08:28:40;;;;;;;8.02;1.70;;;12.20;99.90;;;;;;4974107;28;20053;-73
2022/10/08 08:31:09;;;;;;;7.53;1.65;;;12.00;99.90;;;;;;4969944;28;20035;-73
2022/10/08 08:33:34;;;;;;;13.07;2.30;;;12.30;99.90;;;;;;4977823;28;20081;-73
2022/10/08 08:36:00;;;;;;;10.65;2.00;;;12.40;99.90;;;;;;4978986;28;20069;-73
2022/10/08 08:38:26;;;;;;;7.53;1.67;;;12.60;99.90;;;;;;4976176;28;20548;-73
2022/10/08 08:40:55;;;;;;;9.55;1.80;;;12.70;99.90;;;;;;4946300;28;20047;-73
2022/10/08 08:43:23;;;;;;;8.00;1.50;;;12.50;99.90;;;;;;4961986;28;20907;-75
2022/10/08 08:45:49;;;;;;;9.63;2.05;;;12.90;99.90;;;;;;4965196;28;20054;-75
2022/10/08 08:48:21;;;;;;;10.93;2.10;;;13.00;99.90;;;;;;4946118;28;20058;-77
2022/10/08 08:50:49;;;;;;;9.13;1.70;;;13.10;99.90;;;;;;4962815;28;20047;-76
2022/10/08 08:53:17;;;;;;;7.82;1.63;;;13.30;99.90;;;;;;4948933;28;20106;-76
2022/10/08 08:55:50;;;;;;;10.07;2.00;;;13.40;99.90;;;;;;4951080;28;20485;-75
2022/10/08 08:58:22;;;;;;;9.60;1.67;;;13.70;99.90;;;;;;4965918;28;20042;-75
2022/10/08 09:01:04;;;;;;;6.38;1.73;;;13.70;99.90;;;;;;4967847;28;20600;-75
2022/10/08 09:03:39;;;;;;;7.32;1.50;;;14.00;99.90;;;;;;4968116;28;20082;-74
2022/10/08 09:06:12;;;;;;;5.57;1.50;;;14.60;99.90;;;;;;4949455;28;20054;-74
2022/10/08 09:08:59;;;;;;;8.20;1.80;;;15.00;99.90;;;;;;4933570;29;20039;-74
2022/10/08 09:11:28;;;;;;;8.55;1.33;;;15.10;99.90;;;;;;4947728;28;20055;-74
2022/10/08 09:14:06;;;;;;;9.90;1.48;;;15.20;99.90;;;;;;4947844;29;20131;-73
2022/10/08 09:16:34;;;;;;;6.80;1.23;;;14.90;99.90;;;;;;4931114;29;20047;-74
2022/10/08 09:18:59;;;;;;;5.10;1.05;;;14.50;99.90;;;;;;4977899;28;20062;-74
2022/10/08 09:21:29;;;;;;;4.53;1.15;;;14.30;99.90;;;;;;4975391;28;20039;-74
2022/10/08 09:23:55;;;;;;;7.20;1.40;;;14.00;99.90;;;;;;4975838;28;20493;-73
2022/10/08 09:26:23;;;;;;;6.18;1.30;;;13.80;99.90;;;;;;4977111;28;20046;-74
2022/10/08 09:28:55;;;;;;;6.05;1.05;;;13.70;99.90;;;;;;4969466;28;20375;-70
2022/10/08 09:31:39;;;;;;;5.93;1.10;;;13.80;99.90;;;;;;4966796;28;20514;-71
2022/10/08 09:34:16;;;;;;;7.30;1.50;;;13.90;99.90;;;;;;4958470;28;20038;-71
2022/10/08 09:36:43;;;;;;;6.63;1.63;;;14.30;99.90;;;;;;4947144;29;20055;-69
2022/10/08 09:39:27;;;;;;;4.28;1.20;;;14.70;99.90;;;;;;4947485;28;20046;-69
2022/10/08 09:42:13;;;;;;;6.55;1.42;;;15.10;99.90;;;;;;4947525;29;20145;-69
2022/10/08 09:44:44;;;;;;;4.95;1.00;;;15.30;99.90;;;;;;4948381;29;20068;-68
2022/10/08 09:47:12;;;;;;;4.25;0.90;;;15.90;99.90;;;;;;4947150;29;20399;-69
2022/10/08 09:49:39;;;;;;;5.68;1.20;;;16.20;99.90;;;;;;4948295;29;20182;-68
2022/10/08 09:52:14;;;;;;;6.00;1.05;;;16.20;99.90;;;;;;4929651;29;20086;-68
2022/10/08 09:54:47;;;;;;;7.72;1.17;;;16.70;99.90;;;;;;4945968;28;20051;-68
2022/10/08 09:57:19;;;;;;;6.93;1.45;;;16.70;99.90;;;;;;4965562;28;20057;-68
2022/10/08 09:59:55;;;;;;;3.72;1.08;;;17.00;99.90;;;;;;4949003;28;20371;-68
2022/10/08 10:02:28;;;;;;;6.28;1.60;;;17.30;99.90;;;;;;4965239;28;20047;-68
2022/10/08 10:04:54;;;;;;;6.00;1.40;;;17.40;99.90;;;;;;4961745;28;20081;-68
2022/10/08 10:07:21;;;;;;;11.90;1.50;;;17.30;99.90;;;;;;4957151;28;20518;-68
2022/10/08 10:09:53;;;;;;;7.32;1.30;;;17.20;99.90;;;;;;4948398;28;20097;-67
2022/10/08 10:12:33;;;;;;;7.75;1.20;;;16.60;99.90;;;;;;4965372;28;20058;-67
2022/10/08 10:15:04;;;;;;;9.75;1.70;;;16.40;99.90;;;;;;4948221;28;20051;-67
2022/10/08 10:17:47;;;;;;;5.10;1.10;;;15.70;99.90;;;;;;4967367;28;20114;-67
2022/10/08 10:20:16;;;;;;;6.25;1.40;;;15.20;99.90;;;;;;4948736;28;20158;-67
2022/10/08 10:23:11;;;;;;;10.63;1.15;;;14.90;99.90;;;;;;4949113;28;20047;-67
2022/10/08 10:25:39;;;;;;;6.78;1.45;;;14.60;99.90;;;;;;4949490;28;20050;-67
2022/10/08 10:28:47;;;;;;;5.68;1.20;;;14.40;99.90;;;;;;4965589;28;20051;-67
2022/10/08 10:31:31;;;;;;;13.48;1.50;;;14.20;99.90;;;;;;4929404;28;20088;-67
2022/10/08 10:34:07;;;;;;;7.70;1.48;;;14.50;99.90;;;;;;4949616;28;20042;-67
2022/10/08 10:36:46;;;;;;;8.05;1.33;;;14.50;99.90;;;;;;4966595;28;20629;-68
2022/10/08 10:39:35;;;;;;;6.68;1.77;;;14.50;99.90;;;;;;4948663;28;20047;-67
2022/10/08 10:42:12;;;;;;;7.82;1.33;;;14.60;99.90;;;;;;4948266;28;20046;-69
2022/10/08 10:44:53;;;;;;;5.68;1.10;;;14.30;99.90;;;;;;4966341;28;20086;-68
2022/10/08 10:47:26;;;;;;;5.97;1.45;;;14.10;99.90;;;;;;4966272;28;20050;-67
2022/10/08 10:49:52;;;;;;;5.82;1.17;;;14.50;99.90;;;;;;4948772;28;20047;-67
2022/10/08 10:52:32;;;;;;;8.38;1.50;;;15.00;99.90;;;;;;4947229;28;20055;-68
2022/10/08 10:55:19;;;;;;;8.20;1.40;;;15.50;99.90;;;;;;4948743;28;20074;-67
2022/10/08 10:57:48;;;;;;;6.55;1.52;;;15.70;99.90;;;;;;4948324;28;20094;-67
2022/10/08 11:00:20;;;;;;;8.13;1.30;;;16.20;99.90;;;;;;4948341;28;20090;-66
2022/10/08 11:02:57;;;;;;;7.50;1.60;;;16.30;99.90;;;;;;4948887;28;20047;-67
2022/10/08 11:05:28;;;;;;;7.63;1.17;;;16.80;99.90;;;;;;4959995;28;20696;-67
2022/10/08 11:08:08;;;;;;;10.00;1.80;;;16.60;99.90;;;;;;4937879;29;20132;-67
2022/10/08 11:11:02;;;;;;;10.23;1.70;;;16.70;99.90;;;;;;4928500;29;20466;-65
2022/10/08 11:13:38;;;;;;;6.40;1.38;;;16.40;99.90;;;;;;4928622;29;20082;-64
2022/10/08 11:16:27;;;;;;;5.22;1.45;;;16.50;99.90;;;;;;4945687;28;20043;-64
2022/10/08 11:18:56;;;;;;;7.10;1.50;;;16.40;99.90;;;;;;4945904;29;20446;-63
2022/10/08 11:21:54;;;;;;;6.95;1.30;;;16.20;99.90;;;;;;4946002;29;20081;-63
2022/10/08 11:24:52;;;;;;;7.68;1.52;;;15.90;99.90;;;;;;4945586;29;20055;-64
2022/10/08 11:27:21;;;;;;;10.00;1.60;;;15.80;99.90;;;;;;4945846;29;20055;-63
2022/10/08 11:30:26;;;;;;;8.55;1.55;;;15.40;99.90;;;;;;4945794;29;20062;-63
2022/10/08 11:32:55;;;;;;;9.75;1.70;;;15.30;99.90;;;;;;4945289;29;20055;-65
2022/10/08 11:35:43;;;;;;;9.65;1.52;;;15.20;99.90;;;;;;4945113;29;20178;-65
2022/10/08 11:38:14;;;;;;;5.50;0.93;;;15.00;99.90;;;;;;4945148;29;20561;-63
2022/10/08 11:41:00;;;;;;;4.93;1.17;;;14.40;99.90;;;;;;4945131;29;20058;-65
2022/10/08 11:43:56;;;;;;;6.43;1.02;;;13.90;99.90;;;;;;4923816;29;20051;-65
2022/10/08 11:46:30;;;;;;;3.65;1.27;;;13.70;99.90;;;;;;4941683;29;20055;-64
2022/10/08 11:49:10;;;;;;;5.68;0.85;;;14.20;99.90;;;;;;4946537;29;20047;-62
2022/10/08 11:51:44;;;;;;;5.75;1.20;;;14.80;99.90;;;;;;4952698;28;20524;-64
2022/10/08 11:54:15;;;;;;;3.83;1.13;;;15.00;99.90;;;;;;4974571;28;20128;-64
2022/10/08 11:56:45;;;;;;;7.88;2.78;;;15.10;99.90;;;;;;4975190;28;20097;-64
2022/10/08 11:59:30;;;;;;;5.15;1.60;;;15.10;99.90;;;;;;4969756;28;20043;-64
2022/10/08 12:01:59;;;;;;;5.95;1.23;;;15.50;99.90;;;;;;4972634;28;20053;-64
2022/10/08 12:04:38;;;;;;;4.90;1.10;;;15.60;99.90;;;;;;4971179;28;20117;-64
2022/10/08 12:07:17;;;;;;;6.85;1.40;;;15.80;99.90;;;;;;4972039;28;20046;-64
2022/10/08 12:10:06;;;;;;;9.43;1.10;;;15.70;99.90;;;;;;4973584;28;20035;-63
2022/10/08 12:12:50;;;;;;;7.72;1.58;;;15.40;99.90;;;;;;4945725;28;20046;-63
2022/10/08 12:15:39;;;;;;;9.27;1.75;;;14.90;99.90;;;;;;4962866;28;20053;-64
2022/10/08 12:18:21;;;;;;;6.90;1.30;;;14.70;99.90;;;;;;4944075;28;20458;-63
2022/10/08 12:21:15;;;;;;;7.53;1.83;;;14.50;99.90;;;;;;4963931;28;20058;-64
2022/10/08 12:23:42;;;;;;;9.13;1.97;;;14.40;99.90;;;;;;4964452;28;20468;-63
2022/10/08 12:26:11;;;;;;;9.63;1.70;;;14.50;99.90;;;;;;4964087;28;20899;-62
2022/10/08 12:28:45;;;;;;;8.35;1.70;;;14.70;99.90;;;;;;4951065;28;20113;-65
2022/10/08 12:31:19;;;;;;;8.38;1.55;;;14.80;99.90;;;;;;4947409;28;20093;-62
2022/10/08 12:34:01;;;;;;;8.32;1.33;;;14.70;99.90;;;;;;4960480;28;20051;-64
2022/10/08 12:36:48;;;;;;;9.80;1.23;;;14.70;99.90;;;;;;4948437;28;20089;-64
2022/10/08 12:39:39;;;;;;;6.75;1.10;;;14.90;99.90;;;;;;4978080;28;20401;-63
2022/10/08 12:42:12;;;;;;;4.22;1.13;;;15.00;99.90;;;;;;4975288;28;20659;-64
2022/10/08 12:45:01;;;;;;;6.90;1.00;;;15.20;99.90;;;;;;4965141;28;20074;-62
2022/10/08 12:47:45;;;;;;;6.65;1.20;;;15.30;99.90;;;;;;4965237;28;20390;-64
2022/10/08 12:50:56;;;;;;;6.47;1.42;;;15.50;99.90;;;;;;4967009;28;20054;-64
2022/10/08 12:53:22;;;;;;;7.93;1.30;;;15.40;99.90;;;;;;4966274;28;20492;-64
2022/10/08 12:55:53;;;;;;;13.60;1.77;;;15.60;99.90;;;;;;4963702;28;20055;-63
2022/10/08 12:58:23;;;;;;;12.05;1.42;;;15.80;99.90;;;;;;4963545;28;20113;-63
2022/10/08 13:00:55;;;;;;;6.60;1.40;;;15.80;99.90;;;;;;4964387;28;20059;-63
2022/10/08 13:03:21;;;;;;;7.05;1.38;;;16.10;99.90;;;;;;4963476;28;20594;-63
2022/10/08 13:05:47;;;;;;;7.68;1.27;;;16.00;99.90;;;;;;4957750;28;20051;-63
2022/10/08 13:08:36;;;;;;;8.05;1.45;;;16.00;99.90;;;;;;4933290;29;20471;-62
2022/10/08 13:11:13;;;;;;;5.20;1.17;;;15.90;99.90;;;;;;4941901;28;20069;-64